createdAt,value
2022-08-05T00:00:22.582Z,9.57
2022-08-05T00:02:52.238Z,8.50
2022-08-05T00:06:02.063Z,8.85
2022-08-05T00:08:32.616Z,6.97
2022-08-05T00:11:00.604Z,10.18
2022-08-05T00:13:39.053Z,7.55
2022-08-05T00:16:12.386Z,7.78
2022-08-05T00:18:42.360Z,8.10
2022-08-05T00:21:11.086Z,7.10
2022-08-05T00:23:45.992Z,8.38
2022-08-05T00:26:16.342Z,7.57
2022-08-05T00:28:45.983Z,6.75
2022-08-05T00:31:14.842Z,8.45
2022-08-05T00:34:56.489Z,8.50
2022-08-05T00:37:12.833Z,6.10
2022-08-05T00:39:18.934Z,6.35
2022-08-05T00:41:55.628Z,8.43
2022-08-05T00:44:30.725Z,5.28
2022-08-05T00:47:03.740Z,7.30
2022-08-05T00:49:32.954Z,7.68
2022-08-05T00:52:12.762Z,6.50
2022-08-05T00:54:41.201Z,6.97
2022-08-05T00:57:11.218Z,4.47
2022-08-05T00:59:44.594Z,8.68
2022-08-05T01:02:13.305Z,9.07
2022-08-05T01:04:44.640Z,7.97
2022-08-05T01:07:18.202Z,7.32
2022-08-05T01:09:46.474Z,5.65
2022-08-05T01:12:29.722Z,13.82
2022-08-05T01:15:05.201Z,4.60
2022-08-05T01:20:30.183Z,8.57
2022-08-05T01:23:15.027Z,7.88
2022-08-05T01:26:04.783Z,6.80
2022-08-05T01:28:39.520Z,7.65
2022-08-05T01:31:12.488Z,7.15
2022-08-05T01:33:49.226Z,8.73
2022-08-05T01:36:28.182Z,5.72
2022-08-05T01:39:00.269Z,6.38
2022-08-05T01:41:36.236Z,7.25
2022-08-05T01:44:11.235Z,7.50
2022-08-05T01:46:46.394Z,5.30
2022-08-05T01:51:58.268Z,7.47
2022-08-05T01:54:32.576Z,8.63
2022-08-05T01:58:10.381Z,7.63
2022-08-05T01:59:53.696Z,8.05
2022-08-05T02:02:26.236Z,6.78
2022-08-05T02:04:59.393Z,5.32
2022-08-05T02:07:30.421Z,8.05
2022-08-05T02:09:58.842Z,7.03
2022-08-05T02:12:35.506Z,8.15
2022-08-05T02:18:28.045Z,5.22
2022-08-05T02:20:39.530Z,11.25
2022-08-05T02:23:12.125Z,7.82
2022-08-05T02:25:49.464Z,7.25
2022-08-05T02:28:28.261Z,10.05
2022-08-05T02:31:01.828Z,10.50
2022-08-05T02:33:36.060Z,8.13
2022-08-05T02:36:09.862Z,11.70
2022-08-05T02:38:44.935Z,8.68
2022-08-05T02:41:23.191Z,7.53
2022-08-05T02:44:02.276Z,7.13
2022-08-05T02:46:43.974Z,10.30
2022-08-05T02:49:26.862Z,7.28
2022-08-05T02:52:03.424Z,8.35
2022-08-05T02:54:35.769Z,10.88
2022-08-05T02:57:10.193Z,9.55
2022-08-05T02:59:56.436Z,7.55
2022-08-05T03:02:30.604Z,7.65
2022-08-05T03:05:01.067Z,6.00
2022-08-05T03:08:00.647Z,11.13
2022-08-05T03:10:24.363Z,18.05
2022-08-05T03:15:23.604Z,12.27
2022-08-05T03:17:55.982Z,7.50
2022-08-05T03:20:26.466Z,12.32
2022-08-05T03:22:57.667Z,11.98
2022-08-05T03:25:33.241Z,11.63
2022-08-05T03:28:18.864Z,7.70
2022-08-05T03:30:49.668Z,11.93
2022-08-05T03:33:20.425Z,12.65
2022-08-05T03:35:50.639Z,18.45
2022-08-05T03:38:32.943Z,10.77
2022-08-05T03:41:08.543Z,11.32
2022-08-05T03:44:08.499Z,14.40
2022-08-05T03:46:29.648Z,9.82
2022-08-05T03:48:59.697Z,12.23
2022-08-05T03:52:39.253Z,15.70
2022-08-05T03:55:54.208Z,12.93
2022-08-05T03:57:18.360Z,11.55
2022-08-05T03:59:54.677Z,11.55
2022-08-05T04:02:38.271Z,14.88
2022-08-05T04:05:10.351Z,10.98
2022-08-05T04:07:53.525Z,11.77
2022-08-05T04:10:27.724Z,16.83
2022-08-05T04:12:58.944Z,10.98
2022-08-05T04:15:27.889Z,13.00
2022-08-05T04:18:03.356Z,17.75
2022-08-05T04:20:32.475Z,12.38
2022-08-05T04:23:01.359Z,10.70
2022-08-05T04:25:57.058Z,13.93
2022-08-05T04:28:17.392Z,15.13
2022-08-05T04:30:46.078Z,13.32
2022-08-05T04:33:17.116Z,11.82
2022-08-05T04:36:11.094Z,10.15
2022-08-05T04:38:55.722Z,14.10
2022-08-05T04:41:36.586Z,14.07
2022-08-05T04:44:08.855Z,13.65
2022-08-05T04:46:38.233Z,11.98
2022-08-05T04:49:12.444Z,10.75
2022-08-05T04:51:44.877Z,11.90
2022-08-05T04:54:14.602Z,9.15
2022-08-05T04:56:42.575Z,9.75
2022-08-05T04:59:21.839Z,20.27
2022-08-05T05:02:35.306Z,12.93
2022-08-05T05:04:44.076Z,11.70
2022-08-05T05:07:17.840Z,10.57
2022-08-05T05:09:45.917Z,12.20
2022-08-05T05:12:13.915Z,18.30
2022-08-05T05:14:50.730Z,13.45
2022-08-05T05:17:23.708Z,12.98
2022-08-05T05:19:56.432Z,10.23
2022-08-05T05:22:31.769Z,11.57
2022-08-05T05:25:16.146Z,14.18
2022-08-05T08:03:13.847Z,10.65
2022-08-05T08:05:49.816Z,10.35
2022-08-05T08:08:22.526Z,15.73
2022-08-05T08:10:55.606Z,10.35
2022-08-05T08:13:29.048Z,11.98
2022-08-05T08:16:50.851Z,11.05
2022-08-05T08:18:50.204Z,6.22
2022-08-05T08:21:18.754Z,9.02
2022-08-05T08:24:03.101Z,9.80
2022-08-05T08:29:09.698Z,12.35
2022-08-05T08:31:48.673Z,10.93
2022-08-05T08:34:18.731Z,8.88
2022-08-05T08:36:54.671Z,8.75
2022-08-05T08:39:24.921Z,7.68
2022-08-05T08:41:59.813Z,8.90
2022-08-05T08:45:23.520Z,9.85
2022-08-05T08:48:05.618Z,8.18
2022-08-05T08:50:33.002Z,9.68
2022-08-05T08:53:07.903Z,9.25
2022-08-05T08:56:02.882Z,11.98
2022-08-05T08:58:37.198Z,9.63
2022-08-05T09:01:16.286Z,7.88
2022-08-05T09:03:47.558Z,7.88
2022-08-05T09:06:21.223Z,7.05
2022-08-05T09:08:56.343Z,10.57
2022-08-05T09:11:53.759Z,7.72
2022-08-05T09:14:56.937Z,10.23
2022-08-05T09:17:01.607Z,8.23
2022-08-05T09:19:36.562Z,8.98
2022-08-05T09:22:28.796Z,10.02
2022-08-05T09:25:00.480Z,7.95
2022-08-05T09:28:04.067Z,7.70
2022-08-05T09:30:23.222Z,5.22
2022-08-05T09:32:52.966Z,10.05
2022-08-05T09:35:27.098Z,5.32
2022-08-05T09:38:16.199Z,6.47
2022-08-05T09:40:52.205Z,4.63
2022-08-05T09:43:41.139Z,7.95
2022-08-05T09:46:28.068Z,7.18
2022-08-05T09:49:07.199Z,6.85
2022-08-05T09:51:49.677Z,5.75
2022-08-05T09:54:32.150Z,4.85
2022-08-05T09:57:01.464Z,5.68
2022-08-05T09:59:35.126Z,4.85
2022-08-05T10:04:41.289Z,7.13
2022-08-05T10:07:19.984Z,6.95
2022-08-05T10:10:14.872Z,4.07
2022-08-05T10:12:49.841Z,3.53
2022-08-05T10:15:26.340Z,2.20
2022-08-05T10:18:16.579Z,3.63
2022-08-05T10:20:47.712Z,4.00
2022-08-05T10:23:34.104Z,4.20
2022-08-05T10:26:13.806Z,4.82
2022-08-05T10:28:44.912Z,4.45
2022-08-05T10:32:47.964Z,12.43
2022-08-05T10:34:12.736Z,9.68
2022-08-05T10:36:43.580Z,7.25
2022-08-05T10:39:24.353Z,2.70
2022-08-05T10:42:14.892Z,4.47
2022-08-05T10:44:48.378Z,4.32
2022-08-05T10:47:26.585Z,3.38
2022-08-05T10:50:33.097Z,2.65
2022-08-05T10:53:01.677Z,3.75
2022-08-05T10:56:03.498Z,2.83
2022-08-05T10:58:23.126Z,9.48
2022-08-05T11:01:09.381Z,3.30
2022-08-05T11:06:30.739Z,6.10
2022-08-05T11:09:32.500Z,5.18
2022-08-05T11:12:50.379Z,4.03
2022-08-05T11:16:00.192Z,9.15
2022-08-05T11:18:30.246Z,3.05
2022-08-05T11:21:40.911Z,2.85
2022-08-05T11:24:30.581Z,3.38
2022-08-05T11:27:51.090Z,2.20
2022-08-05T11:30:20.125Z,4.80
2022-08-05T11:32:50.161Z,3.55
2022-08-05T11:36:08.042Z,9.43
2022-08-05T11:38:54.962Z,5.43
2022-08-05T11:41:57.867Z,3.33
2022-08-05T11:44:40.201Z,5.68
2022-08-05T11:47:11.044Z,3.72
2022-08-05T11:49:43.236Z,5.53
2022-08-05T11:52:29.345Z,4.03
2022-08-05T11:55:07.611Z,5.13
2022-08-05T11:58:10.895Z,5.38
2022-08-05T12:00:29.060Z,5.55
2022-08-05T12:02:59.513Z,3.88
2022-08-05T12:05:32.210Z,3.20
2022-08-05T12:08:11.240Z,2.38
2022-08-05T12:13:17.265Z,3.58
2022-08-05T12:15:56.372Z,2.55
2022-08-05T12:18:33.188Z,2.92
2022-08-05T12:21:13.518Z,3.08
2022-08-05T12:23:54.433Z,6.60
2022-08-05T12:26:23.961Z,5.78
2022-08-05T12:28:52.561Z,3.08
2022-08-05T12:31:23.759Z,4.88
2022-08-05T12:34:04.291Z,6.43
2022-08-05T12:36:34.553Z,7.43
2022-08-05T12:39:06.846Z,4.00
2022-08-05T12:41:43.820Z,6.07
2022-08-05T12:44:28.689Z,7.80
2022-08-05T12:47:04.431Z,3.72
2022-08-05T12:50:04.340Z,3.75
2022-08-05T12:52:39.348Z,2.65
2022-08-05T12:55:23.608Z,5.50
2022-08-05T12:58:48.951Z,3.75
2022-08-05T13:02:00.419Z,3.28
2022-08-05T13:03:42.329Z,4.68
2022-08-05T13:06:17.838Z,2.47
2022-08-05T13:08:52.227Z,5.78
2022-08-05T13:12:01.696Z,2.63
2022-08-05T13:14:20.107Z,4.10
2022-08-05T13:16:56.616Z,2.78
2022-08-05T13:19:27.636Z,6.63
2022-08-05T13:22:28.185Z,2.03
2022-08-05T13:25:05.809Z,4.72
2022-08-05T13:27:39.291Z,3.92
2022-08-05T13:30:33.584Z,2.25
2022-08-05T13:33:01.310Z,3.55
2022-08-05T13:35:47.555Z,1.92
2022-08-05T13:38:30.312Z,2.17
2022-08-05T13:41:06.769Z,2.17
2022-08-05T13:43:44.219Z,2.83
2022-08-05T13:46:15.409Z,3.38
2022-08-05T13:48:58.155Z,2.00
2022-08-05T13:51:40.439Z,1.60
2022-08-05T13:54:13.097Z,5.40
2022-08-05T13:56:50.996Z,3.97
2022-08-05T13:59:24.245Z,1.38
2022-08-05T14:01:57.673Z,3.85
2022-08-05T14:04:49.555Z,2.20
2022-08-05T14:07:25.578Z,5.35
2022-08-05T14:10:13.134Z,2.25
2022-08-05T14:12:48.674Z,12.20
2022-08-05T14:16:07.404Z,6.22
2022-08-05T14:18:15.151Z,2.67
2022-08-05T14:20:48.457Z,8.13
2022-08-05T14:23:23.410Z,7.30
2022-08-05T14:25:54.536Z,2.08
2022-08-05T14:28:28.914Z,2.72
2022-08-05T14:30:57.745Z,2.30
2022-08-05T14:33:26.131Z,1.02
2022-08-05T14:35:55.073Z,1.20
2022-08-05T14:38:33.152Z,0.70
2022-08-05T14:41:07.653Z,2.85
2022-08-05T14:43:51.819Z,2.30
2022-08-05T14:46:30.722Z,2.75
2022-08-05T14:49:06.656Z,3.17
2022-08-05T14:51:37.697Z,2.45
2022-08-05T14:54:28.021Z,7.53
2022-08-05T14:56:56.349Z,2.83
2022-08-05T14:59:29.504Z,4.70
2022-08-05T15:02:15.182Z,3.55
2022-08-05T15:04:53.155Z,3.88
2022-08-05T15:08:06.315Z,4.07
2022-08-05T15:10:11.842Z,1.20
2022-08-05T15:12:59.867Z,2.78
2022-08-05T15:15:54.323Z,2.58
2022-08-05T15:18:20.735Z,1.63
2022-08-05T15:20:50.925Z,2.45
2022-08-05T15:23:20.120Z,2.60
2022-08-05T15:25:53.454Z,2.38
2022-08-05T15:28:27.117Z,4.07
2022-08-05T15:30:58.549Z,4.75
2022-08-05T15:34:04.705Z,4.47
2022-08-05T15:36:24.410Z,1.60
2022-08-05T15:41:00.151Z,4.55
2022-08-05T15:41:55.555Z,1.60
2022-08-05T15:44:27.594Z,5.57
2022-08-05T15:46:58.082Z,2.78
2022-08-05T15:49:55.173Z,1.70
2022-08-05T15:52:16.797Z,4.30
2022-08-05T15:54:58.320Z,4.35
2022-08-05T15:57:33.055Z,2.80
2022-08-05T16:00:03.866Z,0.80
2022-08-05T16:02:34.961Z,3.88
2022-08-05T16:05:03.665Z,4.80
2022-08-05T16:07:33.969Z,2.92
2022-08-05T16:10:02.850Z,4.13
2022-08-05T16:12:32.002Z,3.53
2022-08-05T16:15:01.264Z,2.97
2022-08-05T16:17:30.628Z,3.47
2022-08-05T16:20:05.105Z,5.70
2022-08-05T16:22:41.397Z,3.20
2022-08-05T16:25:11.466Z,3.35
2022-08-05T16:28:00.196Z,2.83
2022-08-05T16:30:31.083Z,2.83
2022-08-05T16:33:00.932Z,2.00
2022-08-05T16:35:33.517Z,7.45
2022-08-05T16:38:23.897Z,4.43
2022-08-05T16:40:59.572Z,4.75
2022-08-05T16:43:32.591Z,1.50
2022-08-05T16:46:04.942Z,4.72
2022-08-05T16:48:39.212Z,4.18
2022-08-05T16:51:10.936Z,5.78
2022-08-05T16:54:05.178Z,3.70
2022-08-05T16:56:31.024Z,5.50
2022-08-05T16:59:00.774Z,4.05
2022-08-05T17:01:52.541Z,2.22
2022-08-05T17:04:18.943Z,3.80
2022-08-05T17:06:53.273Z,2.42
2022-08-05T17:09:23.186Z,4.13
2022-08-05T17:11:56.081Z,3.83
2022-08-05T17:14:34.268Z,4.05
2022-08-05T17:17:05.876Z,5.25
2022-08-05T17:19:34.543Z,3.58
2022-08-05T17:22:04.435Z,2.60
2022-08-05T17:24:38.995Z,5.35
2022-08-05T17:27:11.968Z,3.38
2022-08-05T17:29:45.734Z,2.72
2022-08-05T17:32:17.233Z,3.58
2022-08-05T17:34:48.109Z,10.85
2022-08-05T17:37:41.592Z,2.03
2022-08-05T17:40:12.496Z,6.90
2022-08-05T17:42:46.500Z,5.18
2022-08-05T17:45:22.260Z,4.97
2022-08-05T17:47:54.374Z,1.52
2022-08-05T17:50:28.545Z,6.25
2022-08-05T17:53:05.289Z,5.50
2022-08-05T17:55:39.727Z,2.47
2022-08-05T17:58:11.291Z,4.10
2022-08-05T18:00:45.065Z,4.38
2022-08-05T18:03:55.936Z,6.97
2022-08-05T18:06:12.180Z,5.55
2022-08-05T18:08:52.715Z,4.35
2022-08-05T18:11:32.511Z,11.35
2022-08-05T18:14:06.515Z,3.03
2022-08-05T18:16:46.852Z,5.30
2022-08-05T18:19:22.675Z,2.97
2022-08-05T18:22:07.733Z,4.22
2022-08-05T18:24:40.284Z,5.35
2022-08-05T18:27:19.205Z,6.13
2022-08-05T18:29:54.180Z,4.38
2022-08-05T18:35:12.579Z,4.40
2022-08-05T18:37:41.782Z,4.25
2022-08-05T18:40:57.598Z,6.90
2022-08-05T18:43:03.092Z,2.63
2022-08-05T18:45:41.318Z,5.03
2022-08-05T18:48:17.429Z,6.05
2022-08-05T18:52:05.512Z,5.20
2022-08-05T18:54:08.764Z,3.85
2022-08-05T18:56:40.460Z,7.05
2022-08-05T18:59:42.019Z,5.07
2022-08-05T19:01:58.298Z,4.72
2022-08-05T19:04:27.702Z,1.88
2022-08-05T19:06:56.326Z,4.47
2022-08-05T19:09:25.042Z,6.75
2022-08-05T19:12:00.497Z,2.58
2022-08-05T19:15:00.558Z,5.80
2022-08-05T19:17:59.584Z,6.40
2022-08-05T19:20:17.456Z,5.32
2022-08-05T19:22:46.619Z,2.80
2022-08-05T19:25:29.681Z,5.53
2022-08-05T19:28:00.568Z,10.85
2022-08-05T19:30:30.533Z,4.68
2022-08-05T19:32:59.113Z,3.80
2022-08-05T19:35:28.065Z,2.22
2022-08-05T19:38:16.248Z,3.05
2022-08-05T19:40:53.010Z,3.75
2022-08-05T19:44:04.851Z,16.20
2022-08-05T19:46:16.722Z,3.40
2022-08-05T19:49:02.892Z,6.30
2022-08-05T19:52:13.241Z,10.38
2022-08-05T19:54:26.744Z,6.72
2022-08-05T19:57:10.108Z,3.58
2022-08-05T19:59:55.754Z,4.53
2022-08-05T20:02:32.747Z,3.42
2022-08-05T20:05:04.661Z,4.72
2022-08-05T20:07:46.829Z,5.20
2022-08-05T20:10:22.354Z,3.38
2022-08-05T20:12:53.234Z,3.60
2022-08-05T20:15:51.723Z,1.60
2022-08-05T20:18:33.978Z,7.63
2022-08-05T20:21:00.977Z,3.70
2022-08-05T20:23:39.472Z,2.42
2022-08-05T20:26:20.349Z,13.85
2022-08-05T20:28:50.973Z,4.55
2022-08-05T20:31:37.632Z,4.13
2022-08-05T20:34:12.491Z,3.28
2022-08-05T20:36:43.490Z,3.22
2022-08-05T20:39:13.136Z,3.83
2022-08-05T20:41:43.246Z,2.25
2022-08-05T20:44:18.397Z,3.60
2022-08-05T20:46:59.926Z,3.95
2022-08-05T20:49:28.335Z,3.30
2022-08-05T20:51:58.115Z,3.97
2022-08-05T20:54:55.591Z,8.45
2022-08-05T20:57:41.745Z,1.95
2022-08-05T21:00:19.813Z,4.32
2022-08-05T21:02:56.905Z,3.97
2022-08-05T21:05:25.834Z,3.13
2022-08-05T21:08:07.483Z,2.85
2022-08-05T21:10:36.885Z,2.53
2022-08-05T21:13:11.085Z,2.42
2022-08-05T21:15:46.176Z,4.22
2022-08-05T21:18:21.322Z,2.30
2022-08-05T21:20:53.668Z,3.35
2022-08-05T21:23:24.247Z,2.65
2022-08-05T21:25:55.440Z,3.80
2022-08-05T21:28:24.333Z,10.05
2022-08-05T21:33:39.831Z,3.72
2022-08-05T21:36:08.671Z,2.22
2022-08-05T21:38:40.567Z,2.10
2022-08-05T21:41:09.634Z,18.20
2022-08-05T21:43:41.719Z,4.38
2022-08-05T21:46:11.848Z,4.93
2022-08-05T21:48:42.265Z,2.67
2022-08-05T21:51:25.284Z,4.20
2022-08-05T21:54:03.621Z,3.33
2022-08-05T21:56:32.533Z,3.92
2022-08-05T21:59:07.797Z,3.50
2022-08-05T22:01:36.752Z,2.47
2022-08-05T22:04:06.800Z,5.00
2022-08-05T22:06:42.689Z,6.10
2022-08-05T22:09:21.180Z,1.65
2022-08-05T22:11:51.230Z,3.63
2022-08-05T22:14:35.515Z,2.80
2022-08-05T22:17:07.587Z,4.57
2022-08-05T22:20:00.540Z,3.72
2022-08-05T22:22:29.530Z,2.67
2022-08-05T22:25:21.292Z,4.35
2022-08-05T22:28:08.707Z,5.05
2022-08-05T22:30:56.154Z,4.20
2022-08-05T22:33:57.387Z,2.42
2022-08-05T22:36:18.881Z,2.95
2022-08-05T22:38:48.915Z,3.20
2022-08-05T22:42:05.411Z,2.55
2022-08-05T22:44:08.862Z,3.40
2022-08-05T22:46:39.772Z,3.80
2022-08-05T22:49:23.089Z,4.25
2022-08-05T22:52:04.521Z,4.07
2022-08-05T22:54:36.047Z,4.18
2022-08-05T22:57:04.838Z,4.50
2022-08-05T22:59:43.896Z,3.55
2022-08-05T23:02:17.805Z,2.47
2022-08-05T23:04:51.386Z,3.88
2022-08-05T23:07:23.372Z,2.20
2022-08-05T23:09:57.015Z,3.72
2022-08-05T23:12:29.146Z,2.58
2022-08-05T23:15:03.431Z,2.70
2022-08-05T23:17:37.183Z,1.75
2022-08-05T23:20:17.055Z,3.05
2022-08-05T23:22:48.648Z,2.35
2022-08-05T23:25:52.100Z,1.63
2022-08-05T23:28:08.288Z,2.08
2022-08-05T23:30:40.381Z,2.63
2022-08-05T23:35:56.320Z,2.92
2022-08-05T23:38:27.051Z,3.60
2022-08-05T23:40:56.142Z,3.40
2022-08-05T23:44:02.768Z,2.90
2022-08-05T23:46:20.749Z,1.33
2022-08-05T23:49:00.014Z,2.45
2022-08-05T23:51:53.189Z,5.45
2022-08-05T23:54:29.893Z,5.35
2022-08-05T23:57:04.083Z,4.13
